• Join FlightAware (Why Join?)
  • Login
  • US Flag 
08:52PM EST


 

Airport Tracker/Info


-or-


 

Live Flight TrackerFlight Track Log ✈ N8387Z ✈ 15-Aug-2013 ✈ KCPS - KPOF

Flight Track Log - Related Links

Times and Time Zones

All times are in EDT time to prevent confusion due to time zone crossing. See the N8387Z flight status page for this flight to view local times or setup timezone preferences in your user account.

Time Position Orientation Groundspeed Altitude Reporting Facility
EDT Latitude Longitude Course Direction KTS MPH feet Rate Location/Type
09:28AM 38.5500 -90.1333 123° Southeast 102 117 1,000  Level Gateway (St. Louis) TRACON
09:29AM 38.5333 -90.1000 123° Southeast 93 107 1,700 540 Climbing Gateway (St. Louis) TRACON
09:30AM 38.5078 -90.1044 188° South 104 120 2,300 540 Climbing Kansas City Center
09:31AM 38.4803 -90.1131 194° South 102 117 3,100 720 Climbing Kansas City Center
09:32AM 38.4469 -90.1200 189° South 101 116 3,900 840 Climbing Kansas City Center
09:33AM 38.4178 -90.1239 186° South 103 119 4,800 480 Climbing Kansas City Center
09:34AM 38.3858 -90.1253 182° South 108 124 5,000 60 Climbing Kansas City Center
09:35AM 38.3428 -90.1300 185° South 138 159 5,000  Level Kansas City Center
09:36AM 38.2983 -90.1353 185° South 155 178 5,000  Level Kansas City Center
09:37AM 38.2544 -90.1400 185° South 157 181 5,000  Level Kansas City Center
09:38AM 38.2006 -90.1475 186° South 161 185 5,000  Level Kansas City Center
09:39AM 38.1547 -90.1531 185° South 162 186 5,000  Level Kansas City Center
09:40AM 38.1114 -90.1583 185° South 159 183 5,000  Level Kansas City Center
09:42AM 38.0667 -90.1639 186° South 160 184 5,000  Level Kansas City Center
09:43AM 38.0219 -90.1722 188° South 162 186 5,000  Level Kansas City Center
09:44AM 37.9764 -90.1775 185° South 165 190 5,000  Level Kansas City Center
09:45AM 37.9231 -90.1839 185° South 160 184 5,000  Level Kansas City Center
09:46AM 37.8778 -90.1894 186° South 162 186 5,000  Level Kansas City Center
09:47AM 37.8328 -90.1969 187° South 162 186 5,000  Level Kansas City Center
09:48AM 37.7889 -90.2022 185° South 161 185 5,000  Level Kansas City Center
09:49AM 37.7439 -90.2008 179° South 160 184 5,000  Level Kansas City Center
09:50AM 37.6983 -90.2092 188° South 162 186 5,000  Level Kansas City Center
09:51AM 37.6442 -90.2131 183° South 163 188 5,000  Level Kansas City Center
09:52AM 37.5986 -90.2228 190° South 164 189 5,000  Level Kansas City Center
09:53AM 37.5542 -90.2269 184° South 162 186 5,000  Level Kansas City Center
09:54AM 37.5103 -90.2306 184° South 159 183 5,000  Level Kansas City Center
09:55AM 37.4653 -90.2356 185° South 161 185 5,000  Level Kansas City Center
09:56AM 37.4200 -90.2394 184° South 162 186 5,000  Level Kansas City Center
09:57AM 37.3664 -90.2450 185° South 162 186 5,100  Climbing Kansas City Center
09:58AM 37.3261 -90.2517 187° South 160 184 5,000 -60 Descending Kansas City Center
09:59AM 37.2817 -90.2614 190° South 162 186 5,000  Level Kansas City Center
10:00AM 37.2281 -90.2667 184° South 161 185 5,000  Level Kansas City Center
10:01AM 37.1836 -90.2753 189° South 160 184 5,000  Level Kansas City Center
10:02AM 37.1383 -90.2786 183° South 162 186 5,000 -60 Level Kansas City Center
10:03AM 37.0936 -90.2828 184° South 162 186 4,900 -360 Descending Kansas City Center
10:04AM 37.0461 -90.2886 186° South 167 192 4,300 -780 Descending Kansas City Center
10:05AM 36.9961 -90.2936 185° South 173 199 3,400 -900 Descending Kansas City Center
10:06AM 36.9372 -90.3064 190° South 176 203 2,500 -780 Descending Kansas City Center
10:07AM 36.8917 -90.3194 193° South 174 200 1,900 -540 Descending Kansas City Center
10:08AM 36.8472 -90.3239 185° South 168 193 1,500 -480 Descending Kansas City Center
10:09AM 36.8081 -90.3239 180° South 158 182 900 -420 Descending Kansas City Center
10:10AM 36.7633 -90.3258 182° South 155 178 700 -240 Descending Kansas City Center